This is the latest recevied weather packets stored in our database for station/object OE3AOG. If no packets are shown the sender has not sent any weather packets the latest 10 day(s).
| Time | Temp. | Humidity | Pressure | Rain* | Wind** | Luminosity | Snow |
|---|---|---|---|---|---|---|---|
| 1777877719 | 20° C | 43% | 1014.1 hPa | 0 mm | - | 342 W/m² | - |
| 1777877118 | 20° C | 44% | 1014.1 hPa | 0 mm | - | 312 W/m² | - |
| 1777876526 | 19.44° C | 44% | 1014 hPa | 0 mm | - | 289 W/m² | - |
| 1777875918 | 18.89° C | 47% | 1013.9 hPa | 0 mm | - | 244 W/m² | - |
| 1777875319 | 17.78° C | 49% | 1013.9 hPa | 0 mm | - | 204 W/m² | - |
| 1777874728 | 17.78° C | 49% | 1013.9 hPa | 0 mm | - | 170 W/m² | - |
| 1777874126 | 16.67° C | 52% | 1013.9 hPa | 0 mm | - | 178 W/m² | - |
| 1777873518 | 16.67° C | 51% | 1013.9 hPa | 0 mm | - | 139 W/m² | - |
| 1777872926 | 16.67° C | 50% | 1013.7 hPa | 0 mm | - | 111 W/m² | - |
| 1777872318 | 16.11° C | 52% | 1013.7 hPa | 0 mm | - | 95 W/m² | - |
| 1777871727 | 15.56° C | 55% | 1013.7 hPa | 0 mm | - | 102 W/m² | - |
| 1777871119 | 14.44° C | 57% | 1013.6 hPa | 0 mm | - | 95 W/m² | - |
| 1777870526 | 13.89° C | 59% | 1013.6 hPa | 0 mm | - | 87 W/m² | - |
| 1777869918 | 12.78° C | 63% | 1013.5 hPa | 0 mm | - | 71 W/m² | - |
| 1777869326 | 12.22° C | 64% | 1013.4 hPa | 0 mm | - | 58 W/m² | - |
| 1777868718 | 11.67° C | 67% | 1013.3 hPa | 0 mm | - | 47 W/m² | - |
| 1777868127 | 11.11° C | 68% | 1013.2 hPa | 0 mm | - | 32 W/m² | - |
| 1777867527 | 10.56° C | 68% | 1013.4 hPa | 0 mm | - | 23 W/m² | - |
| 1777866919 | 10.56° C | 69% | 1013.3 hPa | 0 mm | - | 14 W/m² | - |
| 1777863926 | 11.67° C | 63% | 1013.5 hPa | 0 mm | - | 0 W/m² | - |
| 1777847719 | 16.67° C | 46% | 1013.7 hPa | 0 mm | - | 0 W/m² | - |
| 1777846519 | 16.11° C | 48% | 1013.8 hPa | 0 mm | - | 0 W/m² | - |
| 1777845320 | 16.11° C | 47% | 1014 hPa | 0 mm | - | 0 W/m² | - |
| 1777844120 | 17.22° C | 45% | 1014.1 hPa | 0 mm | - | 0 W/m² | - |
| 1777842919 | 16.67° C | 45% | 1014 hPa | 0 mm | - | 0 W/m² | - |
* Rain latest hour (hover to see other rain measurements)
** Current wind speed in m/s (hover to see current wind gust speed)